ADDS METAR Data INFO
IDs: Format: Raw Decoded Include TAF

Data at: 0921 UTC 17 Oct 2017

KGEZ 170853Z AUTO 19003KT 10SM CLR 05/03 A3031 RMK AO2 SLP267 T00500028 53006
KGEZ 170753Z AUTO 16003KT 10SM CLR 05/03 A3030 RMK AO2 SLP262 T00500028
KGEZ 170653Z AUTO 18003KT 10SM CLR 06/03 A3030 RMK AO2 SLP262 T00560033
KGEZ 170553Z AUTO 00000KT 10SM CLR 05/03 A3030 RMK AO2 SLP261 T00500028 10094 20050 58001
KGEZ 170453Z AUTO 18003KT 10SM CLR 06/03 A3030 RMK AO2 SLP263 T00560028 401720056
KGEZ 170353Z AUTO 00000KT 10SM CLR 07/04 A3031 RMK AO2 SLP265 T00670039
KGEZ 170253Z AUTO 15003KT 10SM CLR 07/04 A3030 RMK AO2 SLP262 T00670039 50005
KGEZ 170153Z AUTO 00000KT 10SM CLR 07/04 A3030 RMK AO2 SLP264 T00720044
KGEZ 170053Z AUTO 00000KT 10SM CLR 08/04 A3030 RMK AO2 SLP261 T00780044
KGEZ 162353Z AUTO 00000KT 10SM CLR 09/05 A3029 RMK AO2 SLP258 T00940050 10172 20094 55000
KGEZ 162253Z AUTO 31003KT 10SM CLR 13/02 A3028 RMK AO2 SLP256 T01330017
KGEZ 162153Z AUTO 00000KT 10SM FEW060 16/01 A3028 RMK AO2 SLP255 T01610006
KGEZ 162053Z AUTO 30004KT 10SM SCT060 17/01 A3029 RMK AO2 SLP256 T01670011 56011
KGEZ 161953Z AUTO 32005KT 10SM FEW060 17/02 A3029 RMK AO2 SLP258 T01720017
KGEZ 161853Z AUTO VRB06KT 10SM CLR 17/01 A3030 RMK AO2 SLP261 T01670011
KGEZ 161753Z AUTO 32006KT 10SM CLR 16/01 A3032 RMK AO2 SLP266 T01560011 10156 20067 58006
KGEZ 161653Z AUTO VRB05KT 10SM CLR 15/01 A3034 RMK AO2 SLP273 T01500011
KGEZ 161553Z AUTO 30010G15KT 10SM FEW039 14/03 A3034 RMK AO2 SLP276 T01390028
KGEZ 161453Z AUTO 33006KT 10SM CLR 13/05 A3034 RMK AO2 SLP274 T01330050 51014
KGEZ 161353Z AUTO 35007KT 10SM CLR 11/06 A3033 RMK AO2 SLP272 T01110056
KGEZ 161253Z AUTO 31003KT 10SM CLR 08/06 A3032 RMK AO2 SLP267 T00830056
KGEZ 161153Z AUTO 32003KT 10SM CLR 07/04 A3029 RMK AO2 SLP260 70042 T00720044 10106 20072 51014
KGEZ 161053Z AUTO 31003KT 10SM OVC060 08/06 A3028 RMK AO2 SLP256 T00830056
KGEZ 160953Z AUTO 31004KT 10SM BKN065 08/06 A3027 RMK AO2 SLP251 T00830056
KGEZ 160853Z AUTO 31003KT 10SM BKN065 08/06 A3025 RMK AO2 SLP246 T00830061 51007
KGEZ 160753Z AUTO 31004KT 10SM CLR 08/05 A3025 RMK AO2 SLP244 T00780050
KGEZ 160653Z AUTO 32005KT 10SM CLR 09/06 A3024 RMK AO2 SLP241 T00890056
KGEZ 160553Z AUTO 31004KT 10SM BKN039 OVC060 11/07 A3023 RMK AO2 SLP237 T01060067 10122 20089 51007
KGEZ 160453Z AUTO 30004KT 10SM BKN055 09/06 A3023 RMK AO2 SLP235 T00940056 402330089
KGEZ 160353Z AUTO 34006KT 10SM FEW032 11/06 A3022 RMK AO2 SLP232 T01060056
KGEZ 160253Z AUTO 32005KT 10SM OVC049 12/06 A3021 RMK AO2 SLP229 T01170061 51021
KGEZ 160153Z AUTO 31007KT 10SM FEW029 OVC044 12/06 A3019 RMK AO2 SLP223 T01170056
KGEZ 160053Z AUTO 31007KT 10SM OVC043 12/06 A3017 RMK AO2 SLP216 T01170056
KGEZ 152353Z AUTO 32009G18KT 10SM OVC031 12/05 A3015 RMK AO2 SLP206 60001 T01220050 10156 20122 53024
KGEZ 152253Z AUTO 33017G22KT 10SM OVC032 12/05 A3012 RMK AO2 PK WND 32026/2223 SLP196 T01220050
KGEZ 152153Z AUTO 30015G22KT 10SM OVC030 13/06 A3010 RMK AO2 SLP190 T01280056
KGEZ 152135Z AUTO 31012KT 10SM OVC030 13/06 A3009 RMK AO2 T01280061